sensor_id;sensor_type;location;lat;lon;timestamp;P1;durP1;ratioP1;P2;durP2;ratioP2
65581;SDS011;52231;40.090;18.348;2022-10-16T00:01:43;22.35;;;12.25;;
65581;SDS011;52231;40.090;18.348;2022-10-16T00:04:11;25.20;;;11.40;;
65581;SDS011;52231;40.090;18.348;2022-10-16T00:06:39;24.20;;;11.82;;
65581;SDS011;52231;40.090;18.348;2022-10-16T00:09:07;21.38;;;10.38;;
65581;SDS011;52231;40.090;18.348;2022-10-16T00:11:37;21.92;;;10.45;;
65581;SDS011;52231;40.090;18.348;2022-10-16T00:14:08;23.08;;;11.05;;
65581;SDS011;52231;40.090;18.348;2022-10-16T00:16:38;23.95;;;11.48;;
65581;SDS011;52231;40.090;18.348;2022-10-16T00:19:06;24.38;;;10.65;;
65581;SDS011;52231;40.090;18.348;2022-10-16T00:21:34;22.77;;;10.77;;
65581;SDS011;52231;40.090;18.348;2022-10-16T00:24:21;23.17;;;10.43;;
65581;SDS011;52231;40.090;18.348;2022-10-16T00:26:49;20.27;;;9.85;;
65581;SDS011;52231;40.090;18.348;2022-10-16T00:31:46;21.90;;;9.50;;
65581;SDS011;52231;40.090;18.348;2022-10-16T00:34:14;22.25;;;10.52;;
65581;SDS011;52231;40.090;18.348;2022-10-16T00:39:10;23.05;;;10.88;;
65581;SDS011;52231;40.090;18.348;2022-10-16T00:41:38;24.08;;;11.20;;
65581;SDS011;52231;40.090;18.348;2022-10-16T00:47:11;23.30;;;10.80;;
65581;SDS011;52231;40.090;18.348;2022-10-16T00:49:45;23.75;;;11.68;;
65581;SDS011;52231;40.090;18.348;2022-10-16T00:52:15;23.65;;;10.90;;
65581;SDS011;52231;40.090;18.348;2022-10-16T00:57:13;21.83;;;10.63;;
65581;SDS011;52231;40.090;18.348;2022-10-16T00:59:42;24.55;;;10.98;;
65581;SDS011;52231;40.090;18.348;2022-10-16T01:02:12;22.17;;;10.38;;
65581;SDS011;52231;40.090;18.348;2022-10-16T01:04:42;20.42;;;10.30;;
65581;SDS011;52231;40.090;18.348;2022-10-16T01:13:52;21.27;;;10.88;;
65581;SDS011;52231;40.090;18.348;2022-10-16T01:16:07;19.95;;;10.02;;
65581;SDS011;52231;40.090;18.348;2022-10-16T01:18:57;23.23;;;11.07;;
65581;SDS011;52231;40.090;18.348;2022-10-16T01:21:47;21.48;;;9.90;;
65581;SDS011;52231;40.090;18.348;2022-10-16T01:27:18;21.88;;;10.57;;
65581;SDS011;52231;40.090;18.348;2022-10-16T01:30:07;24.23;;;11.55;;
65581;SDS011;52231;40.090;18.348;2022-10-16T01:32:41;23.77;;;11.23;;
65581;SDS011;52231;40.090;18.348;2022-10-16T01:38:05;24.08;;;10.90;;
65581;SDS011;52231;40.090;18.348;2022-10-16T01:40:39;25.73;;;12.02;;
65581;SDS011;52231;40.090;18.348;2022-10-16T01:43:27;24.67;;;12.13;;
65581;SDS011;52231;40.090;18.348;2022-10-16T01:48:48;22.35;;;10.90;;
65581;SDS011;52231;40.090;18.348;2022-10-16T01:51:17;22.90;;;10.48;;
65581;SDS011;52231;40.090;18.348;2022-10-16T01:53:49;22.63;;;12.00;;
65581;SDS011;52231;40.090;18.348;2022-10-16T01:56:21;25.13;;;11.63;;
65581;SDS011;52231;40.090;18.348;2022-10-16T01:59:01;25.60;;;11.85;;
65581;SDS011;52231;40.090;18.348;2022-10-16T02:01:48;23.08;;;11.20;;
65581;SDS011;52231;40.090;18.348;2022-10-16T02:04:29;24.48;;;12.25;;
65581;SDS011;52231;40.090;18.348;2022-10-16T02:07:05;23.60;;;11.68;;
65581;SDS011;52231;40.090;18.348;2022-10-16T02:09:34;24.27;;;11.40;;
65581;SDS011;52231;40.090;18.348;2022-10-16T02:14:54;22.92;;;11.00;;
65581;SDS011;52231;40.090;18.348;2022-10-16T02:17:22;23.95;;;10.85;;
65581;SDS011;52231;40.090;18.348;2022-10-16T02:19:52;25.30;;;11.57;;
65581;SDS011;52231;40.090;18.348;2022-10-16T02:24:58;25.10;;;11.00;;
65581;SDS011;52231;40.090;18.348;2022-10-16T02:27:40;27.85;;;12.65;;
65581;SDS011;52231;40.090;18.348;2022-10-16T02:30:23;28.55;;;12.73;;
65581;SDS011;52231;40.090;18.348;2022-10-16T02:33:09;26.48;;;13.38;;
65581;SDS011;52231;40.090;18.348;2022-10-16T02:35:40;29.92;;;13.43;;
65581;SDS011;52231;40.090;18.348;2022-10-16T02:38:11;31.10;;;13.35;;
65581;SDS011;52231;40.090;18.348;2022-10-16T02:40:40;31.15;;;13.70;;
65581;SDS011;52231;40.090;18.348;2022-10-16T02:45:36;24.42;;;11.77;;
65581;SDS011;52231;40.090;18.348;2022-10-16T02:48:05;26.55;;;12.15;;
65581;SDS011;52231;40.090;18.348;2022-10-16T02:50:33;24.90;;;11.63;;
65581;SDS011;52231;40.090;18.348;2022-10-16T02:53:01;24.73;;;11.60;;
65581;SDS011;52231;40.090;18.348;2022-10-16T02:55:29;27.30;;;11.80;;
65581;SDS011;52231;40.090;18.348;2022-10-16T02:57:58;26.50;;;12.25;;
65581;SDS011;52231;40.090;18.348;2022-10-16T03:00:26;28.85;;;11.98;;
65581;SDS011;52231;40.090;18.348;2022-10-16T03:02:54;24.98;;;12.25;;
65581;SDS011;52231;40.090;18.348;2022-10-16T03:05:22;26.90;;;12.30;;
65581;SDS011;52231;40.090;18.348;2022-10-16T03:07:50;26.10;;;12.15;;
65581;SDS011;52231;40.090;18.348;2022-10-16T03:10:19;26.60;;;12.05;;
65581;SDS011;52231;40.090;18.348;2022-10-16T03:12:47;27.92;;;12.15;;
65581;SDS011;52231;40.090;18.348;2022-10-16T03:15:16;28.02;;;13.40;;
65581;SDS011;52231;40.090;18.348;2022-10-16T03:17:43;28.95;;;13.38;;
65581;SDS011;52231;40.090;18.348;2022-10-16T03:20:11;28.88;;;12.93;;
65581;SDS011;52231;40.090;18.348;2022-10-16T03:22:39;28.15;;;12.20;;
65581;SDS011;52231;40.090;18.348;2022-10-16T03:25:08;28.17;;;13.40;;
65581;SDS011;52231;40.090;18.348;2022-10-16T03:30:04;30.27;;;13.32;;
65581;SDS011;52231;40.090;18.348;2022-10-16T03:32:33;27.60;;;13.00;;
65581;SDS011;52231;40.090;18.348;2022-10-16T03:35:02;30.20;;;13.57;;
65581;SDS011;52231;40.090;18.348;2022-10-16T03:37:30;32.90;;;12.73;;
65581;SDS011;52231;40.090;18.348;2022-10-16T03:39:58;24.45;;;12.32;;
65581;SDS011;52231;40.090;18.348;2022-10-16T03:42:26;32.42;;;13.93;;
65581;SDS011;52231;40.090;18.348;2022-10-16T03:44:54;33.85;;;14.30;;
65581;SDS011;52231;40.090;18.348;2022-10-16T03:47:23;33.25;;;14.18;;
65581;SDS011;52231;40.090;18.348;2022-10-16T03:49:51;31.77;;;14.63;;
65581;SDS011;52231;40.090;18.348;2022-10-16T03:52:19;35.25;;;15.55;;
65581;SDS011;52231;40.090;18.348;2022-10-16T03:54:47;31.80;;;14.25;;
65581;SDS011;52231;40.090;18.348;2022-10-16T03:57:15;29.77;;;14.13;;
65581;SDS011;52231;40.090;18.348;2022-10-16T03:59:43;27.92;;;13.05;;
65581;SDS011;52231;40.090;18.348;2022-10-16T04:02:12;31.40;;;13.55;;
65581;SDS011;52231;40.090;18.348;2022-10-16T04:04:41;29.55;;;13.20;;
65581;SDS011;52231;40.090;18.348;2022-10-16T04:07:59;31.08;;;13.32;;
65581;SDS011;52231;40.090;18.348;2022-10-16T04:11:30;33.13;;;15.55;;
65581;SDS011;52231;40.090;18.348;2022-10-16T04:22:56;33.53;;;14.63;;
65581;SDS011;52231;40.090;18.348;2022-10-16T04:25:25;33.30;;;14.77;;
65581;SDS011;52231;40.090;18.348;2022-10-16T04:27:53;34.50;;;15.13;;
65581;SDS011;52231;40.090;18.348;2022-10-16T04:32:50;35.80;;;14.63;;
65581;SDS011;52231;40.090;18.348;2022-10-16T04:35:19;34.35;;;15.18;;
65581;SDS011;52231;40.090;18.348;2022-10-16T04:37:49;31.58;;;14.60;;
65581;SDS011;52231;40.090;18.348;2022-10-16T04:42:45;34.33;;;14.85;;
65581;SDS011;52231;40.090;18.348;2022-10-16T04:45:14;31.98;;;14.77;;
65581;SDS011;52231;40.090;18.348;2022-10-16T04:47:45;31.17;;;14.32;;
65581;SDS011;52231;40.090;18.348;2022-10-16T04:50:13;32.97;;;13.68;;
65581;SDS011;52231;40.090;18.348;2022-10-16T04:53:00;35.20;;;14.75;;
65581;SDS011;52231;40.090;18.348;2022-10-16T04:55:28;31.92;;;14.88;;
65581;SDS011;52231;40.090;18.348;2022-10-16T04:57:56;31.13;;;13.70;;
65581;SDS011;52231;40.090;18.348;2022-10-16T05:00:25;32.70;;;13.60;;
65581;SDS011;52231;40.090;18.348;2022-10-16T05:02:53;32.30;;;14.18;;
65581;SDS011;52231;40.090;18.348;2022-10-16T05:05:21;32.88;;;14.82;;
65581;SDS011;52231;40.090;18.348;2022-10-16T05:08:02;32.53;;;14.75;;
65581;SDS011;52231;40.090;18.348;2022-10-16T05:10:36;37.47;;;14.90;;
65581;SDS011;52231;40.090;18.348;2022-10-16T05:13:04;37.55;;;15.95;;
65581;SDS011;52231;40.090;18.348;2022-10-16T05:15:32;38.65;;;16.52;;
65581;SDS011;52231;40.090;18.348;2022-10-16T05:18:00;37.33;;;15.52;;
65581;SDS011;52231;40.090;18.348;2022-10-16T05:20:28;37.70;;;15.95;;
65581;SDS011;52231;40.090;18.348;2022-10-16T05:22:57;40.33;;;16.60;;
65581;SDS011;52231;40.090;18.348;2022-10-16T05:25:25;38.75;;;16.58;;
65581;SDS011;52231;40.090;18.348;2022-10-16T05:27:53;35.20;;;15.80;;
65581;SDS011;52231;40.090;18.348;2022-10-16T05:30:21;33.90;;;15.23;;
65581;SDS011;52231;40.090;18.348;2022-10-16T05:32:50;37.17;;;15.25;;
65581;SDS011;52231;40.090;18.348;2022-10-16T05:35:19;35.00;;;14.35;;
65581;SDS011;52231;40.090;18.348;2022-10-16T05:37:47;33.35;;;14.75;;
65581;SDS011;52231;40.090;18.348;2022-10-16T05:40:19;32.33;;;13.63;;
65581;SDS011;52231;40.090;18.348;2022-10-16T05:42:47;31.27;;;15.38;;
65581;SDS011;52231;40.090;18.348;2022-10-16T05:45:16;28.85;;;14.40;;
65581;SDS011;52231;40.090;18.348;2022-10-16T05:47:44;28.00;;;14.02;;
65581;SDS011;52231;40.090;18.348;2022-10-16T05:50:12;28.58;;;13.35;;
65581;SDS011;52231;40.090;18.348;2022-10-16T05:52:40;28.85;;;13.63;;
65581;SDS011;52231;40.090;18.348;2022-10-16T05:55:08;31.20;;;13.57;;
65581;SDS011;52231;40.090;18.348;2022-10-16T05:57:36;29.45;;;13.70;;
65581;SDS011;52231;40.090;18.348;2022-10-16T06:00:05;29.30;;;14.48;;
65581;SDS011;52231;40.090;18.348;2022-10-16T06:02:38;27.83;;;13.57;;
65581;SDS011;52231;40.090;18.348;2022-10-16T06:07:35;32.03;;;13.65;;
65581;SDS011;52231;40.090;18.348;2022-10-16T06:10:04;35.33;;;15.35;;
65581;SDS011;52231;40.090;18.348;2022-10-16T06:12:32;38.65;;;16.08;;
65581;SDS011;52231;40.090;18.348;2022-10-16T06:15:00;40.80;;;16.27;;
65581;SDS011;52231;40.090;18.348;2022-10-16T06:17:29;37.88;;;16.48;;
65581;SDS011;52231;40.090;18.348;2022-10-16T06:19:57;39.50;;;17.92;;
65581;SDS011;52231;40.090;18.348;2022-10-16T06:22:25;40.33;;;18.08;;
65581;SDS011;52231;40.090;18.348;2022-10-16T06:24:53;40.08;;;18.42;;
65581;SDS011;52231;40.090;18.348;2022-10-16T06:27:21;44.38;;;18.83;;
65581;SDS011;52231;40.090;18.348;2022-10-16T06:29:50;40.15;;;18.88;;
65581;SDS011;52231;40.090;18.348;2022-10-16T06:32:18;40.83;;;18.20;;
65581;SDS011;52231;40.090;18.348;2022-10-16T06:34:46;40.45;;;19.40;;
65581;SDS011;52231;40.090;18.348;2022-10-16T06:37:14;38.22;;;18.50;;
65581;SDS011;52231;40.090;18.348;2022-10-16T06:39:44;39.40;;;19.13;;
65581;SDS011;52231;40.090;18.348;2022-10-16T06:42:13;43.35;;;21.13;;
65581;SDS011;52231;40.090;18.348;2022-10-16T06:44:41;43.63;;;21.73;;
65581;SDS011;52231;40.090;18.348;2022-10-16T06:47:09;40.47;;;19.83;;
65581;SDS011;52231;40.090;18.348;2022-10-16T06:49:38;43.30;;;21.33;;
65581;SDS011;52231;40.090;18.348;2022-10-16T06:52:06;39.97;;;21.05;;
65581;SDS011;52231;40.090;18.348;2022-10-16T06:54:34;40.58;;;21.02;;
65581;SDS011;52231;40.090;18.348;2022-10-16T06:57:05;40.15;;;22.00;;
65581;SDS011;52231;40.090;18.348;2022-10-16T06:59:34;38.05;;;20.90;;
65581;SDS011;52231;40.090;18.348;2022-10-16T07:02:02;39.03;;;20.95;;
65581;SDS011;52231;40.090;18.348;2022-10-16T07:07:00;36.92;;;19.52;;
65581;SDS011;52231;40.090;18.348;2022-10-16T07:09:28;35.17;;;19.88;;
65581;SDS011;52231;40.090;18.348;2022-10-16T07:12:01;37.00;;;20.45;;
65581;SDS011;52231;40.090;18.348;2022-10-16T07:14:30;39.03;;;21.25;;
65581;SDS011;52231;40.090;18.348;2022-10-16T07:16:58;36.80;;;20.55;;
65581;SDS011;52231;40.090;18.348;2022-10-16T07:19:26;39.58;;;20.60;;
65581;SDS011;52231;40.090;18.348;2022-10-16T07:21:58;37.60;;;21.08;;
65581;SDS011;52231;40.090;18.348;2022-10-16T07:24:27;34.92;;;19.80;;
65581;SDS011;52231;40.090;18.348;2022-10-16T07:26:55;38.38;;;21.25;;
65581;SDS011;52231;40.090;18.348;2022-10-16T07:29:23;35.30;;;19.60;;
65581;SDS011;52231;40.090;18.348;2022-10-16T07:31:51;38.05;;;20.33;;
65581;SDS011;52231;40.090;18.348;2022-10-16T07:34:19;37.08;;;20.52;;
65581;SDS011;52231;40.090;18.348;2022-10-16T07:36:49;36.38;;;20.38;;
65581;SDS011;52231;40.090;18.348;2022-10-16T07:39:18;33.83;;;19.90;;
65581;SDS011;52231;40.090;18.348;2022-10-16T07:41:46;35.25;;;19.63;;
65581;SDS011;52231;40.090;18.348;2022-10-16T07:44:15;34.70;;;18.70;;
65581;SDS011;52231;40.090;18.348;2022-10-16T07:46:43;35.55;;;20.05;;
65581;SDS011;52231;40.090;18.348;2022-10-16T07:49:12;33.55;;;19.50;;
65581;SDS011;52231;40.090;18.348;2022-10-16T07:51:40;33.83;;;17.80;;
65581;SDS011;52231;40.090;18.348;2022-10-16T07:56:36;30.38;;;16.73;;
65581;SDS011;52231;40.090;18.348;2022-10-16T07:59:05;26.17;;;15.18;;
65581;SDS011;52231;40.090;18.348;2022-10-16T08:01:36;26.60;;;14.85;;
65581;SDS011;52231;40.090;18.348;2022-10-16T08:04:04;26.40;;;15.05;;
65581;SDS011;52231;40.090;18.348;2022-10-16T08:06:37;24.95;;;14.45;;
65581;SDS011;52231;40.090;18.348;2022-10-16T08:09:06;26.02;;;14.55;;
65581;SDS011;52231;40.090;18.348;2022-10-16T08:11:35;24.20;;;13.90;;
65581;SDS011;52231;40.090;18.348;2022-10-16T08:14:03;25.15;;;14.10;;
65581;SDS011;52231;40.090;18.348;2022-10-16T08:16:34;24.77;;;13.15;;
65581;SDS011;52231;40.090;18.348;2022-10-16T08:19:02;22.67;;;12.98;;
65581;SDS011;52231;40.090;18.348;2022-10-16T08:23:58;21.75;;;11.50;;
65581;SDS011;52231;40.090;18.348;2022-10-16T08:26:27;19.15;;;10.40;;
65581;SDS011;52231;40.090;18.348;2022-10-16T08:28:55;21.08;;;11.38;;
65581;SDS011;52231;40.090;18.348;2022-10-16T08:31:26;18.23;;;10.55;;
65581;SDS011;52231;40.090;18.348;2022-10-16T08:33:54;17.65;;;9.85;;
65581;SDS011;52231;40.090;18.348;2022-10-16T08:38:50;16.73;;;10.13;;
65581;SDS011;52231;40.090;18.348;2022-10-16T08:41:37;18.85;;;9.52;;
65581;SDS011;52231;40.090;18.348;2022-10-16T08:49:33;16.80;;;10.15;;
65581;SDS011;52231;40.090;18.348;2022-10-16T08:52:01;18.27;;;10.65;;
65581;SDS011;52231;40.090;18.348;2022-10-16T08:57:09;16.50;;;9.50;;
65581;SDS011;52231;40.090;18.348;2022-10-16T08:59:45;18.38;;;9.55;;
65581;SDS011;52231;40.090;18.348;2022-10-16T09:05:18;18.55;;;10.30;;
65581;SDS011;52231;40.090;18.348;2022-10-16T09:10:46;17.10;;;9.57;;
65581;SDS011;52231;40.090;18.348;2022-10-16T09:13:26;18.77;;;9.27;;
65581;SDS011;52231;40.090;18.348;2022-10-16T09:23:54;14.73;;;7.32;;
65581;SDS011;52231;40.090;18.348;2022-10-16T09:26:27;14.25;;;7.25;;
65581;SDS011;52231;40.090;18.348;2022-10-16T09:28:55;13.85;;;7.00;;
65581;SDS011;52231;40.090;18.348;2022-10-16T09:31:23;11.80;;;6.47;;
65581;SDS011;52231;40.090;18.348;2022-10-16T09:36:25;14.18;;;6.07;;
65581;SDS011;52231;40.090;18.348;2022-10-16T09:39:14;11.65;;;6.40;;
65581;SDS011;52231;40.090;18.348;2022-10-16T09:41:53;10.45;;;5.93;;
65581;SDS011;52231;40.090;18.348;2022-10-16T09:47:04;12.15;;;6.07;;
65581;SDS011;52231;40.090;18.348;2022-10-16T09:49:49;11.52;;;5.68;;
65581;SDS011;52231;40.090;18.348;2022-10-16T09:52:23;12.27;;;5.32;;
65581;SDS011;52231;40.090;18.348;2022-10-16T09:54:53;11.50;;;5.78;;
65581;SDS011;52231;40.090;18.348;2022-10-16T09:57:26;11.60;;;5.38;;
65581;SDS011;52231;40.090;18.348;2022-10-16T09:59:55;10.82;;;5.47;;
65581;SDS011;52231;40.090;18.348;2022-10-16T10:02:31;10.23;;;5.07;;
65581;SDS011;52231;40.090;18.348;2022-10-16T10:05:04;10.43;;;5.18;;
65581;SDS011;52231;40.090;18.348;2022-10-16T10:07:44;11.48;;;5.65;;
65581;SDS011;52231;40.090;18.348;2022-10-16T10:10:19;9.48;;;4.68;;
65581;SDS011;52231;40.090;18.348;2022-10-16T10:12:49;9.95;;;5.00;;
65581;SDS011;52231;40.090;18.348;2022-10-16T10:17:52;8.75;;;4.50;;
65581;SDS011;52231;40.090;18.348;2022-10-16T10:20:26;11.27;;;5.55;;
65581;SDS011;52231;40.090;18.348;2022-10-16T10:23:19;11.07;;;5.15;;
65581;SDS011;52231;40.090;18.348;2022-10-16T10:25:52;12.05;;;6.10;;
65581;SDS011;52231;40.090;18.348;2022-10-16T10:28:55;13.65;;;5.93;;
65581;SDS011;52231;40.090;18.348;2022-10-16T10:31:50;15.57;;;6.60;;
65581;SDS011;52231;40.090;18.348;2022-10-16T10:34:45;13.82;;;5.95;;
65581;SDS011;52231;40.090;18.348;2022-10-16T10:40:07;12.70;;;6.60;;
65581;SDS011;52231;40.090;18.348;2022-10-16T10:42:51;12.27;;;6.32;;
65581;SDS011;52231;40.090;18.348;2022-10-16T10:51:22;11.95;;;6.10;;
65581;SDS011;52231;40.090;18.348;2022-10-16T10:57:07;11.55;;;5.97;;
65581;SDS011;52231;40.090;18.348;2022-10-16T11:02:21;12.20;;;6.57;;
65581;SDS011;52231;40.090;18.348;2022-10-16T11:05:10;13.63;;;6.43;;
65581;SDS011;52231;40.090;18.348;2022-10-16T11:07:42;11.00;;;5.88;;
65581;SDS011;52231;40.090;18.348;2022-10-16T11:10:23;13.43;;;5.78;;
65581;SDS011;52231;40.090;18.348;2022-10-16T11:12:55;11.45;;;6.18;;
65581;SDS011;52231;40.090;18.348;2022-10-16T11:15:31;11.38;;;5.90;;
65581;SDS011;52231;40.090;18.348;2022-10-16T11:18:04;13.52;;;6.15;;
65581;SDS011;52231;40.090;18.348;2022-10-16T11:21:04;12.60;;;5.90;;
65581;SDS011;52231;40.090;18.348;2022-10-16T11:26:20;12.48;;;6.60;;
65581;SDS011;52231;40.090;18.348;2022-10-16T11:28:55;13.32;;;6.57;;
65581;SDS011;52231;40.090;18.348;2022-10-16T11:31:35;12.57;;;6.45;;
65581;SDS011;52231;40.090;18.348;2022-10-16T11:34:21;12.85;;;6.30;;
65581;SDS011;52231;40.090;18.348;2022-10-16T11:37:21;11.90;;;6.40;;
65581;SDS011;52231;40.090;18.348;2022-10-16T11:39:56;11.85;;;6.22;;
65581;SDS011;52231;40.090;18.348;2022-10-16T11:42:37;13.27;;;7.50;;
65581;SDS011;52231;40.090;18.348;2022-10-16T11:45:23;11.77;;;6.03;;
65581;SDS011;52231;40.090;18.348;2022-10-16T11:54:00;10.90;;;6.18;;
65581;SDS011;52231;40.090;18.348;2022-10-16T11:59:04;13.52;;;6.28;;
65581;SDS011;52231;40.090;18.348;2022-10-16T12:01:44;13.05;;;6.55;;
65581;SDS011;52231;40.090;18.348;2022-10-16T12:07:05;13.40;;;6.38;;
65581;SDS011;52231;40.090;18.348;2022-10-16T12:09:39;17.50;;;9.05;;
65581;SDS011;52231;40.090;18.348;2022-10-16T12:15:00;15.48;;;7.78;;
65581;SDS011;52231;40.090;18.348;2022-10-16T12:17:48;15.65;;;8.13;;
65581;SDS011;52231;40.090;18.348;2022-10-16T12:22:48;15.73;;;8.10;;
65581;SDS011;52231;40.090;18.348;2022-10-16T12:25:24;14.70;;;8.10;;
65581;SDS011;52231;40.090;18.348;2022-10-16T12:28:05;15.25;;;8.45;;
65581;SDS011;52231;40.090;18.348;2022-10-16T12:30:53;15.02;;;8.20;;
65581;SDS011;52231;40.090;18.348;2022-10-16T12:33:35;16.45;;;8.93;;
65581;SDS011;52231;40.090;18.348;2022-10-16T12:36:13;16.20;;;8.32;;
65581;SDS011;52231;40.090;18.348;2022-10-16T12:38:53;17.10;;;7.57;;
65581;SDS011;52231;40.090;18.348;2022-10-16T12:41:31;12.68;;;6.93;;
65581;SDS011;52231;40.090;18.348;2022-10-16T12:44:21;14.05;;;7.78;;
65581;SDS011;52231;40.090;18.348;2022-10-16T12:51:57;14.63;;;7.10;;
65581;SDS011;52231;40.090;18.348;2022-10-16T13:13:56;15.45;;;9.10;;
65581;SDS011;52231;40.090;18.348;2022-10-16T13:24:41;12.93;;;7.05;;
65581;SDS011;52231;40.090;18.348;2022-10-16T13:27:58;14.95;;;7.00;;
65581;SDS011;52231;40.090;18.348;2022-10-16T13:30:12;9.95;;;5.35;;
65581;SDS011;52231;40.090;18.348;2022-10-16T13:32:50;10.70;;;5.47;;
65581;SDS011;52231;40.090;18.348;2022-10-16T13:35:28;10.10;;;5.53;;
65581;SDS011;52231;40.090;18.348;2022-10-16T13:38:15;11.02;;;5.18;;
65581;SDS011;52231;40.090;18.348;2022-10-16T13:43:24;9.93;;;4.60;;
65581;SDS011;52231;40.090;18.348;2022-10-16T13:48:39;8.20;;;3.78;;
65581;SDS011;52231;40.090;18.348;2022-10-16T13:51:15;7.82;;;3.55;;
65581;SDS011;52231;40.090;18.348;2022-10-16T13:53:46;9.10;;;3.83;;
65581;SDS011;52231;40.090;18.348;2022-10-16T13:56:15;8.32;;;3.95;;
65581;SDS011;52231;40.090;18.348;2022-10-16T13:59:22;8.48;;;4.28;;
65581;SDS011;52231;40.090;18.348;2022-10-16T14:01:54;7.80;;;3.63;;
65581;SDS011;52231;40.090;18.348;2022-10-16T14:04:25;9.43;;;3.53;;
65581;SDS011;52231;40.090;18.348;2022-10-16T14:06:58;7.03;;;3.35;;
65581;SDS011;52231;40.090;18.348;2022-10-16T14:09:27;7.50;;;3.35;;
65581;SDS011;52231;40.090;18.348;2022-10-16T14:11:58;7.45;;;3.60;;
65581;SDS011;52231;40.090;18.348;2022-10-16T14:14:42;8.00;;;4.07;;
65581;SDS011;52231;40.090;18.348;2022-10-16T14:17:18;11.73;;;4.07;;
65581;SDS011;52231;40.090;18.348;2022-10-16T14:19:52;10.98;;;3.90;;
65581;SDS011;52231;40.090;18.348;2022-10-16T14:22:29;7.65;;;3.85;;
65581;SDS011;52231;40.090;18.348;2022-10-16T14:25:41;8.82;;;3.67;;
65581;SDS011;52231;40.090;18.348;2022-10-16T14:28:15;9.07;;;4.00;;
65581;SDS011;52231;40.090;18.348;2022-10-16T14:33:23;8.60;;;4.18;;
65581;SDS011;52231;40.090;18.348;2022-10-16T14:38:31;8.38;;;3.80;;
65581;SDS011;52231;40.090;18.348;2022-10-16T14:41:01;10.18;;;3.58;;
65581;SDS011;52231;40.090;18.348;2022-10-16T14:43:37;12.15;;;4.05;;
65581;SDS011;52231;40.090;18.348;2022-10-16T14:46:15;8.75;;;3.90;;
65581;SDS011;52231;40.090;18.348;2022-10-16T14:48:49;7.60;;;3.88;;
65581;SDS011;52231;40.090;18.348;2022-10-16T14:51:18;7.82;;;3.95;;
65581;SDS011;52231;40.090;18.348;2022-10-16T14:53:47;9.55;;;4.22;;
65581;SDS011;52231;40.090;18.348;2022-10-16T14:56:19;9.40;;;4.05;;
65581;SDS011;52231;40.090;18.348;2022-10-16T14:58:52;9.95;;;4.57;;
65581;SDS011;52231;40.090;18.348;2022-10-16T15:01:21;11.98;;;4.30;;
65581;SDS011;52231;40.090;18.348;2022-10-16T15:03:49;9.65;;;4.03;;
65581;SDS011;52231;40.090;18.348;2022-10-16T15:06:20;7.72;;;3.92;;
65581;SDS011;52231;40.090;18.348;2022-10-16T15:08:49;12.13;;;5.15;;
65581;SDS011;52231;40.090;18.348;2022-10-16T15:11:18;9.15;;;4.10;;
65581;SDS011;52231;40.090;18.348;2022-10-16T15:13:47;9.48;;;4.82;;
65581;SDS011;52231;40.090;18.348;2022-10-16T15:18:43;8.00;;;4.18;;
65581;SDS011;52231;40.090;18.348;2022-10-16T15:24:00;8.25;;;4.25;;
65581;SDS011;52231;40.090;18.348;2022-10-16T15:26:29;8.68;;;4.38;;
65581;SDS011;52231;40.090;18.348;2022-10-16T15:28:57;8.52;;;4.32;;
65581;SDS011;52231;40.090;18.348;2022-10-16T15:33:54;7.82;;;3.92;;
65581;SDS011;52231;40.090;18.348;2022-10-16T15:36:29;10.88;;;4.50;;
65581;SDS011;52231;40.090;18.348;2022-10-16T15:39:01;8.10;;;4.13;;
65581;SDS011;52231;40.090;18.348;2022-10-16T15:41:29;10.07;;;4.53;;
65581;SDS011;52231;40.090;18.348;2022-10-16T15:43:57;8.93;;;4.13;;
65581;SDS011;52231;40.090;18.348;2022-10-16T15:48:55;8.75;;;4.38;;
65581;SDS011;52231;40.090;18.348;2022-10-16T15:51:25;11.20;;;5.30;;
65581;SDS011;52231;40.090;18.348;2022-10-16T15:53:56;13.00;;;4.75;;
65581;SDS011;52231;40.090;18.348;2022-10-16T15:56:24;11.45;;;4.82;;
65581;SDS011;52231;40.090;18.348;2022-10-16T15:58:52;8.35;;;4.53;;
65581;SDS011;52231;40.090;18.348;2022-10-16T16:01:21;11.02;;;4.55;;
65581;SDS011;52231;40.090;18.348;2022-10-16T16:06:20;10.00;;;4.45;;
65581;SDS011;52231;40.090;18.348;2022-10-16T16:08:49;10.77;;;5.13;;
65581;SDS011;52231;40.090;18.348;2022-10-16T16:11:18;13.10;;;5.07;;
65581;SDS011;52231;40.090;18.348;2022-10-16T16:13:47;10.25;;;5.05;;
65581;SDS011;52231;40.090;18.348;2022-10-16T16:16:19;10.15;;;4.80;;
65581;SDS011;52231;40.090;18.348;2022-10-16T16:18:47;9.63;;;5.25;;
65581;SDS011;52231;40.090;18.348;2022-10-16T16:21:16;12.15;;;5.43;;
65581;SDS011;52231;40.090;18.348;2022-10-16T16:23:45;11.90;;;6.00;;
65581;SDS011;52231;40.090;18.348;2022-10-16T16:26:15;12.88;;;6.50;;
65581;SDS011;52231;40.090;18.348;2022-10-16T16:28:53;13.25;;;6.32;;
65581;SDS011;52231;40.090;18.348;2022-10-16T16:31:24;11.75;;;6.45;;
65581;SDS011;52231;40.090;18.348;2022-10-16T16:33:55;15.98;;;6.75;;
65581;SDS011;52231;40.090;18.348;2022-10-16T16:36:24;12.32;;;6.43;;
65581;SDS011;52231;40.090;18.348;2022-10-16T16:38:53;12.85;;;6.38;;
65581;SDS011;52231;40.090;18.348;2022-10-16T16:41:24;12.90;;;6.03;;
65581;SDS011;52231;40.090;18.348;2022-10-16T16:44:09;12.55;;;5.90;;
65581;SDS011;52231;40.090;18.348;2022-10-16T16:46:51;11.90;;;6.35;;
65581;SDS011;52231;40.090;18.348;2022-10-16T16:49:38;11.95;;;6.60;;
65581;SDS011;52231;40.090;18.348;2022-10-16T16:52:08;14.07;;;6.72;;
65581;SDS011;52231;40.090;18.348;2022-10-16T16:54:37;12.45;;;6.60;;
65581;SDS011;52231;40.090;18.348;2022-10-16T16:57:06;13.68;;;6.80;;
65581;SDS011;52231;40.090;18.348;2022-10-16T16:59:35;12.10;;;6.00;;
65581;SDS011;52231;40.090;18.348;2022-10-16T17:02:04;18.30;;;6.78;;
65581;SDS011;52231;40.090;18.348;2022-10-16T17:04:33;12.32;;;6.13;;
65581;SDS011;52231;40.090;18.348;2022-10-16T17:07:02;11.13;;;5.93;;
65581;SDS011;52231;40.090;18.348;2022-10-16T17:09:31;11.20;;;6.20;;
65581;SDS011;52231;40.090;18.348;2022-10-16T17:12:00;11.93;;;6.35;;
65581;SDS011;52231;40.090;18.348;2022-10-16T17:14:28;11.50;;;6.32;;
65581;SDS011;52231;40.090;18.348;2022-10-16T17:16:57;13.52;;;5.72;;
65581;SDS011;52231;40.090;18.348;2022-10-16T17:19:25;13.18;;;7.13;;
65581;SDS011;52231;40.090;18.348;2022-10-16T17:21:53;12.88;;;6.97;;
65581;SDS011;52231;40.090;18.348;2022-10-16T17:24:21;11.15;;;6.38;;
65581;SDS011;52231;40.090;18.348;2022-10-16T17:29:17;12.73;;;6.95;;
65581;SDS011;52231;40.090;18.348;2022-10-16T17:34:17;12.98;;;6.35;;
65581;SDS011;52231;40.090;18.348;2022-10-16T17:36:45;14.30;;;6.75;;
65581;SDS011;52231;40.090;18.348;2022-10-16T17:39:15;13.15;;;7.15;;
65581;SDS011;52231;40.090;18.348;2022-10-16T17:41:47;13.82;;;7.10;;
65581;SDS011;52231;40.090;18.348;2022-10-16T17:44:15;13.00;;;7.32;;
65581;SDS011;52231;40.090;18.348;2022-10-16T17:46:51;15.07;;;7.35;;
65581;SDS011;52231;40.090;18.348;2022-10-16T17:49:21;15.45;;;7.72;;
65581;SDS011;52231;40.090;18.348;2022-10-16T17:51:52;14.68;;;7.63;;
65581;SDS011;52231;40.090;18.348;2022-10-16T17:54:21;17.20;;;7.85;;